Time;durP1;ratioP1;P1;durP2;ratioP2;P2;SDS_P1;SDS_P2;PMS_P1;PMS_P2;Temp;Humidity;BMP_temperature;BMP_pressure;BME280_temperature;BME280_humidity;BME280_pressure;Samples;Min_cycle;Max_cycle;Signal;HPM_P1;HPM_P2
2023/02/19 00:00:33;;;;;;;40.28;16.10;;;;;;;;;;5077472;28;20043;-68
2023/02/19 00:03:01;;;;;;;40.03;16.35;;;;;;;;;;5096217;28;20074;-68
2023/02/19 00:05:27;;;;;;;36.83;14.82;;;;;;;;;;5094241;28;20858;-68
2023/02/19 00:07:53;;;;;;;47.30;16.45;;;;;;;;;;5074681;28;20123;-68
2023/02/19 00:10:19;;;;;;;32.13;14.52;;;;;;;;;;5095536;28;20036;-68
2023/02/19 00:12:45;;;;;;;38.95;13.55;;;;;;;;;;5098357;28;20028;-68
2023/02/19 00:15:11;;;;;;;32.97;13.18;;;;;;;;;;5075022;28;20118;-68
2023/02/19 00:17:37;;;;;;;35.13;13.45;;;;;;;;;;5076747;28;20051;-68
2023/02/19 00:20:04;;;;;;;30.30;13.23;;;;;;;;;;5091187;28;20082;-68
2023/02/19 00:22:30;;;;;;;33.88;12.00;;;;;;;;;;5077813;28;20043;-68
2023/02/19 00:24:56;;;;;;;31.45;12.70;;;;;;;;;;5089140;28;20052;-68
2023/02/19 00:27:22;;;;;;;31.70;12.88;;;;;;;;;;5077179;28;20163;-68
2023/02/19 00:29:48;;;;;;;28.13;12.00;;;;;;;;;;5094914;28;20113;-69
2023/02/19 00:32:15;;;;;;;25.67;10.60;;;;;;;;;;5094250;28;20062;-69
2023/02/19 00:34:41;;;;;;;31.60;11.23;;;;;;;;;;5092127;28;20395;-68
2023/02/19 00:37:07;;;;;;;27.73;11.32;;;;;;;;;;5075731;28;20389;-68
2023/02/19 00:39:33;;;;;;;26.83;10.90;;;;;;;;;;5092683;28;20111;-69
2023/02/19 00:41:59;;;;;;;32.50;11.52;;;;;;;;;;5092886;28;20054;-68
2023/02/19 00:44:26;;;;;;;27.83;12.30;;;;;;;;;;5094013;28;20119;-68
2023/02/19 00:46:52;;;;;;;29.33;12.02;;;;;;;;;;5094135;28;20050;-68
2023/02/19 00:49:20;;;;;;;25.58;10.75;;;;;;;;;;5093560;28;20040;-69
2023/02/19 00:51:47;;;;;;;30.00;12.10;;;;;;;;;;5094351;28;20417;-68
2023/02/19 00:54:14;;;;;;;38.47;12.40;;;;;;;;;;5096622;28;20044;-68
2023/02/19 00:56:40;;;;;;;27.40;11.68;;;;;;;;;;5096934;28;20040;-68
2023/02/19 00:59:06;;;;;;;32.80;11.20;;;;;;;;;;5089448;28;20503;-68
2023/02/19 01:01:32;;;;;;;33.60;12.40;;;;;;;;;;5074179;28;20102;-69
2023/02/19 01:03:58;;;;;;;26.92;11.35;;;;;;;;;;5094601;28;20659;-69
2023/02/19 01:06:25;;;;;;;27.77;11.90;;;;;;;;;;5091601;28;20489;-68
2023/02/19 01:08:51;;;;;;;27.80;11.75;;;;;;;;;;5094938;28;20104;-68
2023/02/19 01:11:17;;;;;;;29.15;11.18;;;;;;;;;;5081116;28;20040;-68
2023/02/19 01:13:43;;;;;;;34.83;11.63;;;;;;;;;;5089135;28;20074;-68
2023/02/19 01:16:12;;;;;;;26.10;11.07;;;;;;;;;;5078968;28;20050;-68
2023/02/19 01:18:39;;;;;;;25.05;9.68;;;;;;;;;;5093931;28;20047;-68
2023/02/19 01:21:07;;;;;;;30.63;11.35;;;;;;;;;;5094666;28;20032;-68
2023/02/19 01:23:33;;;;;;;38.63;10.88;;;;;;;;;;5093564;28;20962;-68
2023/02/19 01:26:00;;;;;;;28.02;10.63;;;;;;;;;;5079458;28;20079;-68
2023/02/19 01:28:26;;;;;;;29.15;11.40;;;;;;;;;;5094056;28;20504;-68
2023/02/19 01:30:52;;;;;;;33.13;12.25;;;;;;;;;;5098159;28;20053;-68
2023/02/19 01:33:18;;;;;;;38.00;11.32;;;;;;;;;;5091498;28;20044;-68
2023/02/19 01:35:44;;;;;;;24.90;10.85;;;;;;;;;;5092191;28;20486;-68
2023/02/19 01:38:10;;;;;;;34.90;12.35;;;;;;;;;;5090310;28;20059;-68
2023/02/19 01:40:37;;;;;;;25.50;10.30;;;;;;;;;;5076937;28;20134;-68
2023/02/19 01:43:03;;;;;;;31.38;10.55;;;;;;;;;;5093258;28;20451;-68
2023/02/19 01:45:31;;;;;;;28.85;10.65;;;;;;;;;;5080754;28;20040;-68
2023/02/19 01:48:00;;;;;;;31.77;10.18;;;;;;;;;;5077223;28;20055;-68
2023/02/19 01:50:29;;;;;;;30.05;10.75;;;;;;;;;;5091407;28;20044;-68
2023/02/19 01:52:55;;;;;;;32.00;10.82;;;;;;;;;;5095387;28;20059;-68
2023/02/19 01:55:22;;;;;;;28.95;10.38;;;;;;;;;;5098126;28;20039;-68
2023/02/19 01:57:51;;;;;;;27.40;9.75;;;;;;;;;;5092714;28;20044;-68
2023/02/19 02:00:17;;;;;;;35.00;11.40;;;;;;;;;;5091450;28;20032;-68
2023/02/19 02:02:45;;;;;;;31.88;9.57;;;;;;;;;;5094495;28;20051;-68
2023/02/19 02:05:24;;;;;;;29.70;8.50;;;;;;;;;;5090792;28;20036;-68
2023/02/19 02:10:36;;;;;;;14.55;6.15;;;;;;;;;;5093504;28;20043;-68
2023/02/19 02:13:02;;;;;;;13.63;5.95;;;;;;;;;;5095611;28;21263;-68
2023/02/19 02:15:34;;;;;;;9.38;3.83;;;;;;;;;;5098918;28;20032;-68
2023/02/19 02:18:07;;;;;;;7.65;4.22;;;;;;;;;;5079901;28;20134;-68
2023/02/19 02:20:54;;;;;;;10.23;3.92;;;;;;;;;;5080210;28;20048;-68
2023/02/19 02:23:26;;;;;;;7.18;3.42;;;;;;;;;;5097486;28;20654;-68
2023/02/19 02:25:55;;;;;;;7.32;3.13;;;;;;;;;;5078906;28;20119;-66
2023/02/19 02:28:34;;;;;;;6.72;3.20;;;;;;;;;;5079727;28;20392;-68
2023/02/19 02:31:04;;;;;;;9.50;3.47;;;;;;;;;;5094519;28;20046;-68
2023/02/19 02:33:38;;;;;;;7.30;3.63;;;;;;;;;;5080680;28;20443;-68
2023/02/19 02:36:14;;;;;;;8.40;3.10;;;;;;;;;;5098047;28;20059;-68
2023/02/19 02:38:41;;;;;;;5.78;3.13;;;;;;;;;;5081259;28;20070;-68
2023/02/19 02:41:08;;;;;;;8.30;3.40;;;;;;;;;;5096432;28;20146;-68
2023/02/19 02:43:34;;;;;;;7.97;3.72;;;;;;;;;;5077909;28;20093;-68
2023/02/19 02:46:00;;;;;;;6.07;3.58;;;;;;;;;;5098177;28;20040;-68
2023/02/19 02:48:29;;;;;;;7.20;3.92;;;;;;;;;;5079541;28;20048;-68
2023/02/19 02:50:59;;;;;;;6.97;3.72;;;;;;;;;;5078231;28;20525;-68
2023/02/19 02:56:15;;;;;;;8.07;4.22;;;;;;;;;;5080779;28;20154;-68
2023/02/19 02:58:42;;;;;;;8.25;4.35;;;;;;;;;;5098263;28;20407;-68
2023/02/19 03:04:04;;;;;;;8.88;4.30;;;;;;;;;;5096303;28;20036;-68
2023/02/19 03:06:33;;;;;;;10.65;5.15;;;;;;;;;;5096253;28;20043;-68
2023/02/19 03:09:04;;;;;;;10.07;4.95;;;;;;;;;;5076986;28;20040;-68
2023/02/19 03:19:54;;;;;;;13.57;7.05;;;;;;;;;;5091396;28;20139;-68
2023/02/19 03:22:23;;;;;;;14.48;7.13;;;;;;;;;;5074780;28;20070;-68
2023/02/19 03:27:39;;;;;;;15.65;7.75;;;;;;;;;;5095409;28;20064;-68
2023/02/19 03:30:09;;;;;;;12.43;7.57;;;;;;;;;;5078632;28;20116;-68
2023/02/19 03:32:40;;;;;;;11.80;6.57;;;;;;;;;;5091855;28;20047;-68
2023/02/19 03:35:09;;;;;;;9.73;5.93;;;;;;;;;;5096092;28;20047;-68
2023/02/19 03:37:39;;;;;;;11.30;5.60;;;;;;;;;;5096536;28;20096;-68
2023/02/19 03:40:05;;;;;;;12.25;6.43;;;;;;;;;;5097772;28;20048;-68
2023/02/19 03:42:35;;;;;;;14.02;7.20;;;;;;;;;;5094498;28;20047;-68
2023/02/19 03:45:08;;;;;;;17.15;7.88;;;;;;;;;;5093533;28;20052;-68
2023/02/19 03:47:39;;;;;;;14.50;9.10;;;;;;;;;;5079303;28;20053;-68
2023/02/19 03:50:24;;;;;;;17.17;11.40;;;;;;;;;;5072870;28;20566;-68
2023/02/19 03:53:01;;;;;;;18.58;11.10;;;;;;;;;;5080296;28;20055;-68
2023/02/19 03:55:43;;;;;;;21.42;12.25;;;;;;;;;;5090779;28;20048;-68
2023/02/19 03:58:13;;;;;;;18.67;11.68;;;;;;;;;;5096294;28;20100;-68
2023/02/19 04:00:44;;;;;;;20.80;11.05;;;;;;;;;;5101314;28;20052;-68
2023/02/19 04:03:20;;;;;;;15.25;9.85;;;;;;;;;;5093763;28;20088;-68
2023/02/19 04:05:50;;;;;;;14.15;9.15;;;;;;;;;;5094821;28;20104;-68
2023/02/19 04:08:18;;;;;;;17.48;8.73;;;;;;;;;;5077795;28;20503;-68
2023/02/19 04:10:46;;;;;;;16.98;9.63;;;;;;;;;;5094891;28;20561;-68
2023/02/19 04:13:16;;;;;;;13.73;7.85;;;;;;;;;;5094001;28;20064;-68
2023/02/19 04:15:44;;;;;;;14.82;6.65;;;;;;;;;;5095489;28;20065;-68
2023/02/19 04:18:14;;;;;;;12.20;6.07;;;;;;;;;;5077610;28;20052;-68
2023/02/19 04:20:41;;;;;;;11.13;5.47;;;;;;;;;;5091233;28;20054;-68
2023/02/19 04:23:08;;;;;;;6.35;3.20;;;;;;;;;;5091854;28;20035;-68
2023/02/19 04:25:35;;;;;;;8.90;3.22;;;;;;;;;;5091347;28;20040;-68
2023/02/19 04:28:02;;;;;;;7.22;2.90;;;;;;;;;;5095790;28;20064;-68
2023/02/19 04:30:28;;;;;;;6.43;2.50;;;;;;;;;;5096564;28;20127;-68
2023/02/19 04:32:54;;;;;;;5.85;2.92;;;;;;;;;;5094147;28;20050;-68
2023/02/19 04:35:20;;;;;;;6.40;2.65;;;;;;;;;;5074504;28;20039;-68
2023/02/19 04:37:46;;;;;;;9.13;2.63;;;;;;;;;;5077420;28;20083;-68
2023/02/19 04:40:12;;;;;;;8.88;3.45;;;;;;;;;;5094294;28;20066;-68
2023/02/19 04:42:39;;;;;;;4.95;2.67;;;;;;;;;;5093769;28;20051;-69
2023/02/19 04:45:05;;;;;;;14.15;3.00;;;;;;;;;;5073422;28;20079;-68
2023/02/19 04:47:32;;;;;;;7.50;3.28;;;;;;;;;;5075687;28;20035;-69
2023/02/19 04:49:58;;;;;;;7.15;2.80;;;;;;;;;;5079074;28;20054;-68
2023/02/19 04:52:24;;;;;;;7.07;3.40;;;;;;;;;;5093456;28;20046;-68
2023/02/19 04:54:50;;;;;;;7.78;3.38;;;;;;;;;;5095739;28;20140;-68
2023/02/19 04:57:16;;;;;;;7.38;3.80;;;;;;;;;;5095121;28;20047;-68
2023/02/19 04:59:43;;;;;;;7.07;3.10;;;;;;;;;;5095430;28;20060;-68
2023/02/19 05:02:09;;;;;;;6.10;3.22;;;;;;;;;;5090421;28;20047;-68
2023/02/19 05:04:35;;;;;;;6.40;2.72;;;;;;;;;;5092864;28;20692;-68
2023/02/19 05:07:01;;;;;;;8.65;3.97;;;;;;;;;;5095062;28;20507;-68
2023/02/19 05:09:27;;;;;;;10.38;3.53;;;;;;;;;;5093346;28;20040;-68
2023/02/19 05:11:53;;;;;;;6.35;3.35;;;;;;;;;;5095936;28;20036;-68
2023/02/19 05:14:20;;;;;;;11.65;3.72;;;;;;;;;;5098301;28;20063;-68
2023/02/19 05:16:46;;;;;;;8.25;3.95;;;;;;;;;;5097788;28;20044;-68
2023/02/19 05:19:12;;;;;;;12.00;4.65;;;;;;;;;;5093633;28;20933;-68
2023/02/19 05:21:40;;;;;;;10.82;3.30;;;;;;;;;;5093118;28;20361;-68
2023/02/19 05:24:06;;;;;;;6.85;2.67;;;;;;;;;;5077253;28;20090;-68
2023/02/19 05:26:32;;;;;;;8.05;2.45;;;;;;;;;;5073833;28;20652;-68
2023/02/19 05:28:59;;;;;;;6.75;1.73;;;;;;;;;;5075141;28;20044;-68
2023/02/19 05:31:25;;;;;;;2.13;0.82;;;;;;;;;;5076685;28;20039;-68
2023/02/19 05:33:51;;;;;;;2.25;0.60;;;;;;;;;;5097508;28;20124;-68
2023/02/19 05:36:19;;;;;;;1.58;0.85;;;;;;;;;;5073691;28;20119;-68
2023/02/19 05:38:46;;;;;;;4.82;0.80;;;;;;;;;;5090890;28;20135;-68
2023/02/19 05:41:14;;;;;;;2.85;0.80;;;;;;;;;;5096671;28;20484;-68
2023/02/19 05:43:41;;;;;;;3.20;0.90;;;;;;;;;;5095086;28;20764;-68
2023/02/19 05:46:08;;;;;;;6.40;1.00;;;;;;;;;;5097669;28;20047;-68
2023/02/19 05:48:34;;;;;;;3.22;1.00;;;;;;;;;;5081670;28;20123;-68
2023/02/19 05:51:01;;;;;;;6.13;1.05;;;;;;;;;;5097713;28;20028;-68
2023/02/19 05:53:27;;;;;;;4.50;1.27;;;;;;;;;;5080061;28;20056;-68
2023/02/19 05:55:54;;;;;;;4.72;1.20;;;;;;;;;;5080024;28;20164;-68
2023/02/19 05:58:20;;;;;;;3.60;0.95;;;;;;;;;;5100352;28;20119;-68
2023/02/19 06:00:46;;;;;;;4.57;1.40;;;;;;;;;;5089484;28;20052;-68
2023/02/19 06:03:12;;;;;;;4.68;1.30;;;;;;;;;;5097217;28;20048;-68
2023/02/19 06:05:38;;;;;;;4.95;1.20;;;;;;;;;;5098244;28;20039;-68
2023/02/19 06:08:04;;;;;;;5.20;1.17;;;;;;;;;;5098688;28;20096;-68
2023/02/19 06:10:31;;;;;;;5.97;1.85;;;;;;;;;;5094727;28;20096;-68
2023/02/19 06:12:57;;;;;;;4.72;1.40;;;;;;;;;;5100297;28;20123;-68
2023/02/19 06:15:23;;;;;;;8.23;1.45;;;;;;;;;;5096351;28;20368;-68
2023/02/19 06:17:49;;;;;;;3.53;1.13;;;;;;;;;;5084181;28;20127;-68
2023/02/19 06:20:16;;;;;;;6.13;1.73;;;;;;;;;;5101970;28;20042;-68
2023/02/19 06:22:42;;;;;;;4.38;1.52;;;;;;;;;;5097928;28;20048;-68
2023/02/19 06:25:11;;;;;;;5.30;1.58;;;;;;;;;;5098173;28;20040;-68
2023/02/19 06:27:38;;;;;;;6.00;1.50;;;;;;;;;;5099879;28;20055;-68
2023/02/19 06:30:04;;;;;;;8.55;1.30;;;;;;;;;;5078689;28;20056;-68
2023/02/19 06:32:30;;;;;;;6.47;1.45;;;;;;;;;;5095648;28;20044;-68
2023/02/19 06:34:56;;;;;;;5.85;1.60;;;;;;;;;;5096724;28;20043;-68
2023/02/19 06:37:22;;;;;;;8.73;1.92;;;;;;;;;;5097616;28;20040;-68
2023/02/19 06:39:49;;;;;;;4.20;1.50;;;;;;;;;;5102402;28;20051;-68
2023/02/19 06:42:16;;;;;;;7.65;2.88;;;;;;;;;;5092924;28;20044;-68
2023/02/19 06:44:42;;;;;;;4.03;1.48;;;;;;;;;;5098169;28;20036;-68
2023/02/19 06:47:08;;;;;;;4.25;1.70;;;;;;;;;;5097197;28;20116;-68
2023/02/19 06:49:34;;;;;;;8.45;1.50;;;;;;;;;;5094760;28;20054;-68
2023/02/19 06:52:02;;;;;;;5.15;1.50;;;;;;;;;;5092179;28;20040;-68
2023/02/19 06:54:28;;;;;;;6.38;2.08;;;;;;;;;;5087683;28;20097;-68
2023/02/19 06:56:57;;;;;;;3.08;1.17;;;;;;;;;;5081786;28;20047;-68
2023/02/19 06:59:24;;;;;;;5.43;1.00;;;;;;;;;;5094253;28;20044;-68
2023/02/19 07:01:50;;;;;;;5.25;1.00;;;;;;;;;;5075197;28;20044;-68
2023/02/19 07:04:16;;;;;;;3.25;1.00;;;;;;;;;;5082115;28;20039;-68
2023/02/19 07:06:42;;;;;;;2.70;0.88;;;;;;;;;;5102844;28;20091;-68
2023/02/19 07:09:09;;;;;;;3.70;0.80;;;;;;;;;;5096404;28;20039;-69
2023/02/19 07:11:37;;;;;;;5.68;1.20;;;;;;;;;;5076586;28;20044;-68
2023/02/19 07:14:06;;;;;;;3.97;1.00;;;;;;;;;;5096261;28;20160;-68
2023/02/19 07:16:33;;;;;;;3.72;1.00;;;;;;;;;;5096859;28;20036;-68
2023/02/19 07:19:00;;;;;;;2.35;0.80;;;;;;;;;;5095686;28;20379;-68
2023/02/19 07:21:26;;;;;;;2.80;0.85;;;;;;;;;;5096702;28;20559;-68
2023/02/19 07:23:53;;;;;;;3.08;0.98;;;;;;;;;;5096647;28;20066;-68
2023/02/19 07:26:19;;;;;;;1.75;0.70;;;;;;;;;;5098296;28;20039;-68
2023/02/19 07:28:46;;;;;;;2.22;0.80;;;;;;;;;;5076927;28;20062;-68
2023/02/19 07:31:13;;;;;;;2.83;0.80;;;;;;;;;;5096692;28;20137;-68
2023/02/19 07:33:42;;;;;;;3.42;1.00;;;;;;;;;;5093953;28;20170;-68
2023/02/19 07:36:08;;;;;;;4.00;1.33;;;;;;;;;;5094954;28;20115;-68
2023/02/19 07:38:34;;;;;;;3.95;1.10;;;;;;;;;;5095149;28;20155;-68
2023/02/19 07:41:01;;;;;;;3.80;1.60;;;;;;;;;;5094735;28;20055;-68
2023/02/19 07:43:29;;;;;;;5.95;1.10;;;;;;;;;;5096506;28;20075;-68
2023/02/19 07:45:55;;;;;;;4.28;0.98;;;;;;;;;;5089168;28;20054;-68
2023/02/19 07:48:21;;;;;;;5.13;1.13;;;;;;;;;;5079251;28;20047;-68
2023/02/19 07:50:52;;;;;;;6.40;1.27;;;;;;;;;;5095437;28;20210;-68
2023/02/19 07:53:18;;;;;;;3.88;1.10;;;;;;;;;;5076665;28;20051;-68
2023/02/19 07:55:44;;;;;;;4.25;1.30;;;;;;;;;;5077408;28;20040;-68
2023/02/19 07:58:10;;;;;;;4.70;1.20;;;;;;;;;;5079714;28;20045;-68
2023/02/19 08:00:37;;;;;;;5.00;1.58;;;;;;;;;;5095031;28;20072;-68
2023/02/19 08:03:03;;;;;;;3.25;1.40;;;;;;;;;;5075049;28;20391;-68
2023/02/19 08:05:31;;;;;;;6.03;1.70;;;;;;;;;;5090252;28;20043;-67
2023/02/19 08:07:57;;;;;;;3.15;1.20;;;;;;;;;;5098835;28;20061;-69
2023/02/19 08:13:18;;;;;;;8.55;1.48;;;;;;;;;;5090540;28;20086;-67
2023/02/19 08:15:44;;;;;;;3.08;1.10;;;;;;;;;;5094566;28;20518;-68
2023/02/19 08:18:11;;;;;;;5.20;1.40;;;;;;;;;;5091411;28;20071;-68
2023/02/19 08:20:38;;;;;;;5.53;1.10;;;;;;;;;;5096920;28;20042;-68
2023/02/19 08:23:04;;;;;;;6.28;1.20;;;;;;;;;;5095624;28;20208;-68
2023/02/19 08:25:31;;;;;;;2.28;0.95;;;;;;;;;;5098213;28;20109;-67
2023/02/19 08:27:59;;;;;;;4.75;1.40;;;;;;;;;;5097933;28;20085;-68
2023/02/19 08:30:25;;;;;;;3.83;1.33;;;;;;;;;;5097296;28;20040;-68
2023/02/19 08:32:51;;;;;;;2.80;1.30;;;;;;;;;;5094038;28;20036;-68
2023/02/19 08:35:17;;;;;;;3.75;1.23;;;;;;;;;;5088282;28;20048;-69
2023/02/19 08:37:44;;;;;;;3.25;1.50;;;;;;;;;;5074562;28;20048;-67
2023/02/19 08:40:11;;;;;;;5.13;1.50;;;;;;;;;;5075553;28;20047;-69
2023/02/19 08:42:38;;;;;;;4.55;1.30;;;;;;;;;;5089544;28;20059;-67
2023/02/19 08:45:05;;;;;;;3.85;1.30;;;;;;;;;;5093521;28;20085;-67
2023/02/19 08:47:31;;;;;;;3.28;1.50;;;;;;;;;;5078657;28;20052;-67
2023/02/19 08:49:57;;;;;;;2.63;1.08;;;;;;;;;;5096114;28;20382;-67
2023/02/19 08:52:23;;;;;;;3.63;1.25;;;;;;;;;;5078406;28;20045;-67
2023/02/19 08:54:50;;;;;;;3.78;1.30;;;;;;;;;;5095862;28;20062;-68
2023/02/19 08:57:16;;;;;;;5.43;1.40;;;;;;;;;;5089204;28;20456;-68
2023/02/19 08:59:42;;;;;;;3.08;0.90;;;;;;;;;;5075872;28;20512;-68
2023/02/19 09:02:09;;;;;;;2.33;0.90;;;;;;;;;;5097017;28;20399;-68
2023/02/19 09:04:36;;;;;;;8.43;1.10;;;;;;;;;;5093391;28;20065;-68
2023/02/19 09:07:06;;;;;;;3.65;1.10;;;;;;;;;;5093093;28;20100;-68
2023/02/19 09:09:32;;;;;;;4.07;1.02;;;;;;;;;;5097027;28;20188;-68
2023/02/19 09:11:59;;;;;;;3.60;1.10;;;;;;;;;;5094829;28;20051;-68
2023/02/19 09:14:25;;;;;;;4.63;1.10;;;;;;;;;;5097408;28;20039;-68
2023/02/19 09:16:51;;;;;;;7.85;1.50;;;;;;;;;;5075812;28;20132;-67
2023/02/19 09:19:17;;;;;;;5.35;1.10;;;;;;;;;;5090619;28;20048;-67
2023/02/19 09:21:44;;;;;;;3.25;0.95;;;;;;;;;;5095112;28;20047;-68
2023/02/19 09:24:10;;;;;;;4.47;1.42;;;;;;;;;;5093372;28;20399;-68
2023/02/19 09:26:36;;;;;;;4.95;0.77;;;;;;;;;;5096342;28;20062;-68
2023/02/19 09:29:02;;;;;;;6.07;0.80;;;;;;;;;;5092331;28;20130;-68
2023/02/19 09:31:29;;;;;;;3.33;0.80;;;;;;;;;;5099972;28;20039;-68
2023/02/19 09:33:55;;;;;;;2.97;1.30;;;;;;;;;;5095728;28;20039;-68
2023/02/19 09:36:21;;;;;;;4.15;1.00;;;;;;;;;;5097940;28;20031;-68
2023/02/19 09:38:47;;;;;;;2.80;0.90;;;;;;;;;;5093882;28;20044;-68
2023/02/19 09:41:16;;;;;;;4.05;0.88;;;;;;;;;;5097548;28;20048;-67
2023/02/19 09:43:42;;;;;;;5.80;1.15;;;;;;;;;;5094643;28;20059;-68
2023/02/19 09:46:11;;;;;;;4.22;0.88;;;;;;;;;;5094632;28;20118;-68
2023/02/19 09:48:37;;;;;;;4.47;0.70;;;;;;;;;;5090817;28;20067;-68
2023/02/19 09:51:04;;;;;;;6.30;1.13;;;;;;;;;;5075612;28;20555;-68
2023/02/19 09:53:40;;;;;;;7.13;1.20;;;;;;;;;;5096144;28;20035;-68
2023/02/19 09:56:06;;;;;;;2.47;0.70;;;;;;;;;;5090774;28;20044;-68
2023/02/19 09:58:34;;;;;;;7.00;1.75;;;;;;;;;;5077348;28;20075;-68
2023/02/19 10:01:02;;;;;;;3.00;0.80;;;;;;;;;;5093629;28;20512;-68
2023/02/19 10:03:32;;;;;;;4.88;1.20;;;;;;;;;;5091815;28;20407;-68
2023/02/19 10:06:00;;;;;;;2.28;0.93;;;;;;;;;;5073902;28;20503;-68
2023/02/19 10:08:26;;;;;;;5.70;0.90;;;;;;;;;;5092739;28;20040;-68
2023/02/19 10:10:53;;;;;;;2.25;0.93;;;;;;;;;;5094125;28;20047;-68
2023/02/19 10:13:21;;;;;;;4.32;0.98;;;;;;;;;;5097083;28;20039;-68
2023/02/19 10:15:50;;;;;;;5.40;1.42;;;;;;;;;;5080374;28;20093;-68
2023/02/19 10:18:17;;;;;;;2.88;0.98;;;;;;;;;;5098383;28;20044;-68
2023/02/19 10:20:44;;;;;;;6.90;1.83;;;;;;;;;;5092960;28;20040;-68
2023/02/19 10:23:13;;;;;;;5.40;1.23;;;;;;;;;;5075062;28;20066;-68
2023/02/19 10:25:41;;;;;;;6.88;1.55;;;;;;;;;;5100777;28;20047;-68
2023/02/19 10:28:13;;;;;;;9.60;1.67;;;;;;;;;;5099527;28;20146;-68
2023/02/19 10:30:40;;;;;;;5.40;1.08;;;;;;;;;;5084208;28;20044;-68
2023/02/19 10:33:11;;;;;;;8.93;1.40;;;;;;;;;;5098232;28;20051;-68
2023/02/19 10:35:50;;;;;;;7.90;1.10;;;;;;;;;;5095562;28;20138;-67
2023/02/19 10:38:18;;;;;;;12.32;1.70;;;;;;;;;;5096800;28;21172;-67
2023/02/19 10:40:45;;;;;;;7.35;1.08;;;;;;;;;;5100390;28;20058;-69
2023/02/19 10:43:22;;;;;;;5.55;1.13;;;;;;;;;;5100518;28;20082;-68
2023/02/19 10:45:51;;;;;;;4.13;1.17;;;;;;;;;;5097896;28;20048;-68
2023/02/19 10:48:23;;;;;;;7.50;1.60;;;;;;;;;;5097895;28;20052;-68
2023/02/19 10:50:56;;;;;;;9.98;1.77;;;;;;;;;;5095787;28;20055;-68
2023/02/19 10:53:24;;;;;;;6.68;1.10;;;;;;;;;;5058286;28;20047;-67
2023/02/19 10:56:06;;;;;;;7.82;1.27;;;;;;;;;;5091322;28;20515;-67
2023/02/19 10:58:33;;;;;;;12.05;1.70;;;;;;;;;;5094505;28;20083;-67
2023/02/19 11:01:18;;;;;;;9.40;1.60;;;;;;;;;;5097969;28;20039;-68
2023/02/19 11:03:44;;;;;;;6.47;1.30;;;;;;;;;;5078606;28;20131;-67
2023/02/19 11:06:12;;;;;;;3.22;0.82;;;;;;;;;;5093397;28;20032;-67
2023/02/19 11:08:45;;;;;;;4.18;1.10;;;;;;;;;;5095435;28;20047;-68
2023/02/19 11:11:21;;;;;;;6.80;1.00;;;;;;;;;;5093212;28;20040;-68
2023/02/19 11:13:47;;;;;;;7.15;1.25;;;;;;;;;;5093201;28;20912;-67
2023/02/19 11:16:14;;;;;;;4.80;1.20;;;;;;;;;;5095729;28;20084;-67
2023/02/19 11:18:41;;;;;;;7.68;1.48;;;;;;;;;;5093112;28;20133;-67
2023/02/19 11:21:22;;;;;;;5.22;1.00;;;;;;;;;;5074751;28;20410;-66
2023/02/19 11:23:48;;;;;;;5.25;1.23;;;;;;;;;;5095707;28;20036;-67
2023/02/19 11:26:17;;;;;;;3.67;0.80;;;;;;;;;;5093705;28;20558;-67
2023/02/19 11:28:44;;;;;;;4.13;0.70;;;;;;;;;;5094527;28;20080;-67
2023/02/19 11:31:25;;;;;;;4.28;0.90;;;;;;;;;;5094889;28;20048;-67
2023/02/19 11:33:59;;;;;;;2.80;0.60;;;;;;;;;;5088302;28;20748;-67
2023/02/19 11:36:32;;;;;;;5.57;0.88;;;;;;;;;;5089967;28;20067;-67
2023/02/19 11:39:01;;;;;;;4.75;1.08;;;;;;;;;;5091942;28;20047;-67
2023/02/19 11:41:41;;;;;;;5.47;0.98;;;;;;;;;;5069595;28;20097;-68
2023/02/19 11:44:15;;;;;;;4.82;1.00;;;;;;;;;;5072805;28;20052;-67
2023/02/19 11:46:53;;;;;;;4.97;1.35;;;;;;;;;;5063984;28;20310;-68
2023/02/19 11:49:25;;;;;;;5.35;1.10;;;;;;;;;;5061605;28;20040;-67
2023/02/19 11:51:51;;;;;;;8.98;1.40;;;;;;;;;;5070365;28;20036;-67
2023/02/19 11:54:21;;;;;;;4.63;1.00;;;;;;;;;;5070865;28;20192;-67
2023/02/19 11:56:53;;;;;;;5.32;1.13;;;;;;;;;;5068941;28;20056;-67
2023/02/19 11:59:28;;;;;;;4.05;1.00;;;;;;;;;;5070595;28;20044;-69
2023/02/19 12:01:54;;;;;;;4.38;1.17;;;;;;;;;;5066026;28;20040;-68
2023/02/19 12:04:27;;;;;;;5.07;0.98;;;;;;;;;;5071203;28;20051;-67
2023/02/19 12:06:56;;;;;;;4.80;1.02;;;;;;;;;;5072325;28;20113;-68
2023/02/19 12:09:31;;;;;;;5.60;1.25;;;;;;;;;;5077335;28;20475;-68
2023/02/19 12:11:58;;;;;;;3.13;0.90;;;;;;;;;;5081149;28;20119;-67
2023/02/19 12:14:28;;;;;;;5.93;1.05;;;;;;;;;;5074060;28;20048;-67
2023/02/19 12:17:01;;;;;;;3.17;0.60;;;;;;;;;;5073507;28;20091;-67
2023/02/19 12:19:34;;;;;;;5.87;0.83;;;;;;;;;;5071536;28;20085;-67
2023/02/19 12:22:06;;;;;;;6.03;1.17;;;;;;;;;;5072134;28;20044;-67
2023/02/19 12:24:32;;;;;;;5.90;1.17;;;;;;;;;;5072980;28;20728;-67
2023/02/19 12:27:20;;;;;;;5.90;1.15;;;;;;;;;;5075710;28;20427;-67
2023/02/19 12:29:52;;;;;;;7.93;1.30;;;;;;;;;;5068843;28;20047;-67
2023/02/19 12:32:24;;;;;;;5.20;1.08;;;;;;;;;;5071498;28;20074;-67
2023/02/19 12:34:51;;;;;;;3.25;0.88;;;;;;;;;;5071698;28;20032;-67
2023/02/19 12:37:17;;;;;;;3.33;0.73;;;;;;;;;;5072143;28;20139;-67
2023/02/19 12:39:52;;;;;;;6.78;1.25;;;;;;;;;;5070526;28;20078;-67
2023/02/19 12:42:37;;;;;;;7.43;1.20;;;;;;;;;;5087082;28;20134;-66
2023/02/19 12:45:14;;;;;;;6.43;1.52;;;;;;;;;;5069111;28;20474;-67
2023/02/19 12:47:42;;;;;;;6.57;1.30;;;;;;;;;;5091212;28;20127;-67
2023/02/19 12:50:08;;;;;;;6.57;1.42;;;;;;;;;;5088982;28;20043;-67
2023/02/19 12:52:39;;;;;;;5.93;1.70;;;;;;;;;;5092355;28;20062;-67
2023/02/19 12:55:21;;;;;;;7.97;1.42;;;;;;;;;;5087971;28;20046;-67
2023/02/19 12:57:48;;;;;;;5.60;1.08;;;;;;;;;;5068965;28;20047;-67
2023/02/19 13:00:21;;;;;;;8.80;1.27;;;;;;;;;;5091036;28;20035;-67
2023/02/19 13:02:50;;;;;;;8.70;1.67;;;;;;;;;;5095740;28;20054;-67
2023/02/19 13:05:23;;;;;;;4.25;1.20;;;;;;;;;;5092140;28;20039;-68
2023/02/19 13:07:50;;;;;;;5.85;1.27;;;;;;;;;;5071762;28;20039;-68
2023/02/19 13:10:16;;;;;;;10.30;1.38;;;;;;;;;;5087736;28;20116;-68
2023/02/19 13:12:43;;;;;;;7.53;1.65;;;;;;;;;;5074970;28;20047;-68
2023/02/19 13:15:18;;;;;;;5.63;1.35;;;;;;;;;;5092416;28;20071;-68
2023/02/19 13:17:46;;;;;;;8.45;1.45;;;;;;;;;;5072286;28;20121;-68
2023/02/19 13:20:23;;;;;;;5.63;1.10;;;;;;;;;;5091585;28;20044;-68
2023/02/19 13:25:52;;;;;;;15.07;1.98;;;;;;;;;;5090780;28;20098;-68
2023/02/19 13:28:18;;;;;;;;;;;;;;;;;;5089951;28;20050;-67
2023/02/19 13:30:45;;;;;;;7.90;1.35;;;;;;;;;;5070941;28;19920;-67
2023/02/19 13:33:26;;;;;;;6.75;1.25;;;;;;;;;;5089609;28;20047;-67
2023/02/19 13:36:05;;;;;;;5.18;1.08;;;;;;;;;;5072392;28;20509;-67
2023/02/19 13:38:37;;;;;;;7.97;1.20;;;;;;;;;;5068118;28;20415;-67
2023/02/19 13:41:03;;;;;;;8.43;1.30;;;;;;;;;;5090067;28;20090;-67
2023/02/19 13:43:37;;;;;;;6.72;1.00;;;;;;;;;;5088080;28;20047;-67
2023/02/19 13:46:09;;;;;;;6.53;1.23;;;;;;;;;;5086874;28;20051;-67
2023/02/19 13:48:37;;;;;;;6.15;1.23;;;;;;;;;;5069591;28;20048;-67
2023/02/19 13:51:12;;;;;;;6.90;1.23;;;;;;;;;;5069061;28;20535;-68
2023/02/19 13:53:42;;;;;;;9.15;1.35;;;;;;;;;;5068874;28;20071;-68
2023/02/19 13:56:26;;;;;;;9.18;1.27;;;;;;;;;;5089360;28;20066;-68
2023/02/19 13:58:54;;;;;;;7.88;1.30;;;;;;;;;;5091845;28;20066;-68
2023/02/19 14:01:40;;;;;;;7.00;1.63;;;;;;;;;;5088430;28;20044;-68
2023/02/19 14:04:08;;;;;;;8.82;1.50;;;;;;;;;;5093970;28;20040;-67
2023/02/19 14:06:58;;;;;;;8.98;1.38;;;;;;;;;;5076552;28;20093;-67
2023/02/19 14:09:34;;;;;;;8.68;1.52;;;;;;;;;;5073580;28;20055;-69
2023/02/19 14:12:02;;;;;;;7.40;1.92;;;;;;;;;;5094023;28;20097;-67
2023/02/19 14:14:34;;;;;;;5.40;1.35;;;;;;;;;;5088411;28;20061;-67
2023/02/19 14:17:08;;;;;;;8.53;1.30;;;;;;;;;;5090984;28;20089;-67
2023/02/19 14:19:41;;;;;;;9.30;1.80;;;;;;;;;;5094822;28;20418;-68
2023/02/19 14:22:26;;;;;;;7.43;1.33;;;;;;;;;;5089224;28;20047;-67
2023/02/19 14:24:53;;;;;;;9.05;1.95;;;;;;;;;;5089905;28;20415;-66
2023/02/19 14:27:20;;;;;;;6.70;1.30;;;;;;;;;;5073750;28;20124;-66
2023/02/19 14:29:46;;;;;;;6.82;1.42;;;;;;;;;;5092826;28;20056;-66
2023/02/19 14:32:18;;;;;;;7.60;1.50;;;;;;;;;;5094284;28;20080;-66
2023/02/19 14:34:45;;;;;;;7.38;1.52;;;;;;;;;;5096032;28;20050;-66
2023/02/19 14:37:17;;;;;;;5.43;1.00;;;;;;;;;;5099174;28;20065;-66
2023/02/19 14:39:44;;;;;;;4.65;1.10;;;;;;;;;;5079784;28;20052;-66
2023/02/19 14:42:21;;;;;;;7.07;1.17;;;;;;;;;;5096176;28;20653;-66
2023/02/19 14:44:50;;;;;;;11.65;1.55;;;;;;;;;;5095063;28;20035;-66
2023/02/19 14:47:19;;;;;;;5.13;1.10;;;;;;;;;;5078305;28;20067;-67
2023/02/19 14:49:47;;;;;;;6.47;1.70;;;;;;;;;;5080572;28;20050;-66
2023/02/19 14:52:19;;;;;;;7.18;1.23;;;;;;;;;;5091776;28;20147;-66
2023/02/19 14:54:51;;;;;;;3.92;0.82;;;;;;;;;;5095601;28;20043;-66
2023/02/19 14:57:20;;;;;;;7.32;1.40;;;;;;;;;;5092816;28;20047;-66
2023/02/19 14:59:58;;;;;;;9.80;1.73;;;;;;;;;;5072357;28;20071;-66
2023/02/19 15:02:25;;;;;;;3.47;0.88;;;;;;;;;;5072497;28;20432;-66
2023/02/19 15:04:53;;;;;;;7.22;1.50;;;;;;;;;;5090809;28;20044;-66
2023/02/19 15:07:22;;;;;;;8.73;2.05;;;;;;;;;;5088712;28;20135;-66
2023/02/19 15:09:50;;;;;;;7.90;1.27;;;;;;;;;;5073791;28;20078;-66
2023/02/19 15:12:19;;;;;;;13.57;1.80;;;;;;;;;;5074965;28;20043;-66